Terminal Aerodrome Forecast
Issued by NWS

Home | Current Version | Previous Version | Text Only | Print | Product List | Glossary On
Versions: 1 2 3 4 5 6 7 8 9 10 11 12 13 14 15 16 17 18 19 20 21 22 23
000
FTUS46 KLOX 211808 AAA
TAFWJF
TAF AMD
KWJF 211808Z 2118/2218 28018KT P6SM -RA VCSH SCT023 BKN030 OVC070
     FM211900 28025KT P6SM SCT030 BKN070
     FM212200 26025G35KT P6SM SCT040
     FM220300 26015G25KT P6SM SKC
     FM221000 26013KT P6SM SKC=

USA.gov is the U.S. government's official web portal to all federal, state and local government web resources and services.